createdAt,value
2022-10-20T00:00:08.695Z,997.61
2022-10-20T00:01:08.693Z,997.63
2022-10-20T00:02:08.680Z,997.66
2022-10-20T00:03:08.704Z,997.67
2022-10-20T00:04:08.655Z,997.63
2022-10-20T00:05:08.634Z,997.66
2022-10-20T00:06:08.614Z,997.68
2022-10-20T00:07:08.615Z,997.66
2022-10-20T00:08:08.595Z,997.56
2022-10-20T00:09:08.646Z,997.63
2022-10-20T00:10:08.566Z,997.60
2022-10-20T00:11:08.554Z,997.60
2022-10-20T00:12:08.550Z,997.58
2022-10-20T00:13:08.533Z,997.56
2022-10-20T00:14:08.552Z,997.57
2022-10-20T00:15:08.513Z,997.60
2022-10-20T00:16:08.490Z,997.61
2022-10-20T00:17:08.483Z,997.54
2022-10-20T00:18:08.465Z,997.61
2022-10-20T00:19:08.482Z,997.54
2022-10-20T00:20:08.491Z,997.50
2022-10-20T00:21:08.454Z,997.51
2022-10-20T00:22:08.593Z,997.51
2022-10-20T00:23:08.403Z,997.47
2022-10-20T00:24:08.413Z,997.49
2022-10-20T00:25:08.375Z,997.45
2022-10-20T00:26:08.364Z,997.47
2022-10-20T00:27:08.350Z,997.47
2022-10-20T00:28:08.342Z,997.40
2022-10-20T00:29:08.409Z,997.38
2022-10-20T00:30:08.302Z,997.42
2022-10-20T00:31:08.301Z,997.34
2022-10-20T00:32:08.282Z,997.34
2022-10-20T00:33:08.271Z,997.31
2022-10-20T00:34:08.272Z,997.28
2022-10-20T00:35:08.244Z,997.32
2022-10-20T00:36:08.278Z,997.32
2022-10-20T00:37:08.231Z,997.28
2022-10-20T00:38:08.257Z,997.28
2022-10-20T00:39:08.230Z,997.29
2022-10-20T00:40:08.170Z,997.23
2022-10-20T00:41:08.186Z,997.27
2022-10-20T00:42:08.150Z,997.28
2022-10-20T00:43:08.160Z,997.22
2022-10-20T00:44:08.150Z,997.27
2022-10-20T00:45:08.111Z,997.27
2022-10-20T00:46:08.111Z,997.24
2022-10-20T00:47:08.087Z,997.24
2022-10-20T00:48:08.157Z,997.21
2022-10-20T00:49:08.088Z,997.21
2022-10-20T00:50:08.041Z,997.17
2022-10-20T00:51:08.106Z,997.15
2022-10-20T00:52:08.019Z,997.13
2022-10-20T00:53:08.017Z,997.13
2022-10-20T00:54:08.028Z,997.06
2022-10-20T00:55:07.989Z,997.07
2022-10-20T00:56:07.967Z,997.11
2022-10-20T00:57:07.950Z,997.13
2022-10-20T00:58:07.940Z,997.12
2022-10-20T00:59:07.953Z,997.11
2022-10-20T01:00:07.917Z,997.11
2022-10-20T01:01:07.898Z,997.12
2022-10-20T01:02:07.918Z,997.11
2022-10-20T01:03:07.891Z,997.07
2022-10-20T01:04:07.898Z,996.99
2022-10-20T01:05:07.856Z,996.97
2022-10-20T01:06:07.914Z,996.91
2022-10-20T01:07:07.826Z,996.89
2022-10-20T01:08:07.808Z,996.90
2022-10-20T01:09:07.892Z,996.87
2022-10-20T01:10:07.780Z,996.90
2022-10-20T01:11:07.774Z,996.93
2022-10-20T01:12:07.770Z,996.89
2022-10-20T01:13:07.765Z,996.86
2022-10-20T01:14:07.757Z,996.81
2022-10-20T01:15:07.726Z,996.83
2022-10-20T01:16:07.705Z,996.85
2022-10-20T01:17:07.703Z,996.82
2022-10-20T01:18:07.686Z,996.85
2022-10-20T01:19:07.747Z,996.81
2022-10-20T01:20:07.666Z,996.81
2022-10-20T01:21:07.645Z,996.79
2022-10-20T01:22:07.624Z,996.73
2022-10-20T01:23:07.705Z,996.75
2022-10-20T01:24:07.635Z,996.71
2022-10-20T01:25:07.588Z,996.72
2022-10-20T01:26:07.565Z,996.70
2022-10-20T01:27:07.567Z,996.72
2022-10-20T01:28:07.550Z,996.77
2022-10-20T01:29:07.565Z,996.78
2022-10-20T01:30:07.515Z,996.77
2022-10-20T01:31:07.514Z,996.72
2022-10-20T01:32:07.491Z,996.76
2022-10-20T01:33:07.483Z,996.72
2022-10-20T01:34:07.506Z,996.72
2022-10-20T01:35:07.461Z,996.68
2022-10-20T01:36:07.444Z,996.67
2022-10-20T01:37:07.433Z,996.63
2022-10-20T01:38:07.423Z,996.61
2022-10-20T01:39:07.436Z,996.59
2022-10-20T01:40:07.383Z,996.57
2022-10-20T01:41:07.394Z,996.53
2022-10-20T01:42:07.363Z,996.53
2022-10-20T01:43:07.352Z,996.50
2022-10-20T01:44:07.362Z,996.52
2022-10-20T01:45:07.333Z,996.61
2022-10-20T01:46:07.313Z,996.51
2022-10-20T01:47:07.302Z,996.58
2022-10-20T01:48:07.283Z,996.59
2022-10-20T01:49:07.304Z,996.56
2022-10-20T01:50:07.323Z,996.56
2022-10-20T01:51:07.252Z,996.54
2022-10-20T01:52:07.233Z,996.53
2022-10-20T01:53:07.222Z,996.46
2022-10-20T01:54:07.245Z,996.42
2022-10-20T01:55:07.193Z,996.44
2022-10-20T01:56:07.179Z,996.41
2022-10-20T01:57:07.168Z,996.38
2022-10-20T01:58:07.153Z,996.31
2022-10-20T01:59:07.171Z,996.31
2022-10-20T02:00:07.131Z,996.33
2022-10-20T02:01:07.122Z,996.23
2022-10-20T02:02:07.100Z,996.22
2022-10-20T02:03:07.092Z,996.17
2022-10-20T02:04:07.122Z,996.13
2022-10-20T02:05:07.062Z,996.13
2022-10-20T02:06:07.047Z,996.12
2022-10-20T02:07:07.049Z,996.11
2022-10-20T02:08:07.021Z,996.08
2022-10-20T02:09:07.041Z,996.07
2022-10-20T02:10:06.998Z,996.10
2022-10-20T02:11:06.989Z,996.12
2022-10-20T02:12:06.971Z,996.11
2022-10-20T02:13:06.981Z,996.08
2022-10-20T02:14:06.977Z,996.03
2022-10-20T02:15:06.938Z,996.00
2022-10-20T02:16:07.180Z,995.95
2022-10-20T02:17:06.899Z,995.93
2022-10-20T02:18:06.895Z,995.92
2022-10-20T02:19:06.915Z,995.94
2022-10-20T02:20:06.872Z,995.96
2022-10-20T02:21:06.848Z,995.90
2022-10-20T02:22:06.838Z,995.89
2022-10-20T02:23:06.828Z,995.88
2022-10-20T02:24:06.837Z,995.90
2022-10-20T02:25:06.798Z,995.93
2022-10-20T02:26:06.789Z,995.90
2022-10-20T02:27:06.768Z,995.87
2022-10-20T02:28:06.766Z,995.80
2022-10-20T02:29:06.767Z,995.76
2022-10-20T02:30:06.737Z,995.76
2022-10-20T02:31:06.776Z,995.76
2022-10-20T02:32:06.708Z,995.72
2022-10-20T02:33:06.698Z,995.73
2022-10-20T02:34:06.706Z,995.67
2022-10-20T02:35:06.978Z,995.69
2022-10-20T02:36:06.656Z,995.69
2022-10-20T02:37:06.700Z,995.66
2022-10-20T02:38:06.627Z,995.62
2022-10-20T02:39:06.651Z,995.63
2022-10-20T02:40:06.617Z,995.65
2022-10-20T02:41:06.587Z,995.71
2022-10-20T02:42:06.586Z,995.61
2022-10-20T02:43:06.556Z,995.59
2022-10-20T02:44:06.595Z,995.58
2022-10-20T02:45:06.543Z,995.56
2022-10-20T02:46:06.606Z,995.57
2022-10-20T02:47:06.695Z,995.61
2022-10-20T02:48:07.879Z,995.61
2022-10-20T02:49:06.508Z,995.62
2022-10-20T02:50:06.507Z,995.61
2022-10-20T02:51:06.455Z,995.64
2022-10-20T02:52:06.444Z,995.65
2022-10-20T02:53:06.438Z,995.58
2022-10-20T02:54:06.453Z,995.60
2022-10-20T02:55:06.563Z,995.57
2022-10-20T02:56:06.407Z,995.59
2022-10-20T02:57:06.408Z,995.56
2022-10-20T02:58:06.393Z,995.56
2022-10-20T02:59:06.385Z,995.55
2022-10-20T03:00:06.362Z,995.56
2022-10-20T03:01:06.324Z,995.58
2022-10-20T03:02:06.403Z,995.55
2022-10-20T03:03:06.312Z,995.53
2022-10-20T03:04:06.323Z,995.52
2022-10-20T03:05:06.274Z,995.50
2022-10-20T03:06:06.263Z,995.50
2022-10-20T03:07:06.264Z,995.49
2022-10-20T03:08:06.244Z,995.47
2022-10-20T03:09:06.254Z,995.46
2022-10-20T03:10:06.216Z,995.43
2022-10-20T03:11:06.193Z,995.41
2022-10-20T03:12:06.189Z,995.43
2022-10-20T03:13:06.223Z,995.44
2022-10-20T03:14:06.252Z,995.44
2022-10-20T03:15:06.149Z,995.44
2022-10-20T03:16:06.134Z,995.46
2022-10-20T03:17:06.139Z,995.46
2022-10-20T03:18:06.112Z,995.46
2022-10-20T03:19:09.144Z,995.45
2022-10-20T03:20:07.081Z,995.41
2022-10-20T03:21:06.068Z,995.38
2022-10-20T03:22:06.062Z,995.37
2022-10-20T03:23:06.046Z,995.37
2022-10-20T03:24:06.061Z,995.35
2022-10-20T03:25:06.030Z,995.30
2022-10-20T03:26:06.000Z,995.29
2022-10-20T03:27:06.002Z,995.32
2022-10-20T03:28:05.982Z,995.30
2022-10-20T03:29:05.990Z,995.36
2022-10-20T03:30:05.953Z,995.29
2022-10-20T03:31:05.932Z,995.32
2022-10-20T03:32:05.922Z,995.28
2022-10-20T03:33:05.912Z,995.27
2022-10-20T03:34:05.930Z,995.20
2022-10-20T03:35:05.887Z,995.20
2022-10-20T03:36:05.894Z,995.21
2022-10-20T03:37:05.851Z,995.23
2022-10-20T03:38:05.877Z,995.20
2022-10-20T03:39:05.863Z,995.15
2022-10-20T03:40:05.827Z,995.16
2022-10-20T03:41:05.814Z,995.10
2022-10-20T03:42:05.810Z,995.08
2022-10-20T03:43:05.802Z,995.06
2022-10-20T03:44:05.917Z,995.02
2022-10-20T03:45:05.761Z,995.01
2022-10-20T03:46:05.739Z,995.01
2022-10-20T03:47:05.729Z,994.98
2022-10-20T03:48:05.720Z,994.98
2022-10-20T03:49:05.734Z,994.98
2022-10-20T03:51:05.678Z,994.97
2022-10-20T03:52:05.668Z,994.99
2022-10-20T03:53:05.656Z,994.99
2022-10-20T03:54:05.667Z,994.96
2022-10-20T03:55:05.629Z,994.88
2022-10-20T03:56:05.628Z,994.90
2022-10-20T03:57:07.819Z,994.90
2022-10-20T03:58:05.730Z,994.89
2022-10-20T03:59:05.699Z,994.91
2022-10-20T04:00:05.557Z,994.85
2022-10-20T04:01:05.558Z,994.86
2022-10-20T04:02:05.605Z,994.87
2022-10-20T04:03:05.518Z,994.86
2022-10-20T04:04:05.597Z,994.82
2022-10-20T04:05:05.520Z,994.82
2022-10-20T04:06:05.488Z,994.81
2022-10-20T04:07:05.466Z,994.86
2022-10-20T04:08:05.523Z,994.83
2022-10-20T04:09:05.511Z,994.91
2022-10-20T04:10:05.436Z,994.92
2022-10-20T04:11:05.415Z,994.88
2022-10-20T04:12:05.414Z,994.80
2022-10-20T04:13:05.405Z,994.77
2022-10-20T04:14:05.415Z,994.76
2022-10-20T04:15:05.367Z,994.77
2022-10-20T04:16:05.363Z,994.73
2022-10-20T04:17:05.337Z,994.77
2022-10-20T04:18:05.337Z,994.76
2022-10-20T04:19:05.334Z,994.76
2022-10-20T04:20:05.303Z,994.68
2022-10-20T04:21:05.292Z,994.69
2022-10-20T04:22:05.275Z,994.69
2022-10-20T04:23:05.254Z,994.71
2022-10-20T04:24:05.275Z,994.72
2022-10-20T04:25:05.233Z,994.72
2022-10-20T04:26:05.243Z,994.69
2022-10-20T04:27:05.215Z,994.68
2022-10-20T04:28:05.203Z,994.68
2022-10-20T04:29:05.214Z,994.68
2022-10-20T04:30:05.190Z,994.68
2022-10-20T04:31:05.154Z,994.67
2022-10-20T04:32:05.153Z,994.66
2022-10-20T04:33:05.141Z,994.64
2022-10-20T04:34:05.143Z,994.69
2022-10-20T04:35:05.117Z,994.65
2022-10-20T04:36:05.093Z,994.63
2022-10-20T04:37:05.114Z,994.61
2022-10-20T04:38:05.062Z,994.59
2022-10-20T04:39:05.081Z,994.60
2022-10-20T04:40:05.043Z,994.54
2022-10-20T04:41:05.142Z,994.48
2022-10-20T04:42:05.011Z,994.47
2022-10-20T04:43:05.000Z,994.53
2022-10-20T04:44:05.012Z,994.54
2022-10-20T04:45:04.984Z,994.52
2022-10-20T04:46:07.965Z,994.51
2022-10-20T04:47:04.952Z,994.46
2022-10-20T04:48:04.931Z,994.45
2022-10-20T04:49:04.941Z,994.38
2022-10-20T04:50:04.911Z,994.39
2022-10-20T04:51:04.903Z,994.41
2022-10-20T04:52:04.890Z,994.37
2022-10-20T04:53:04.867Z,994.36
2022-10-20T04:55:04.842Z,994.31
2022-10-20T04:56:04.842Z,994.31
2022-10-20T04:57:04.819Z,994.25
2022-10-20T04:58:04.811Z,994.22
2022-10-20T04:59:08.321Z,994.22
2022-10-20T05:00:05.782Z,994.20
2022-10-20T05:01:04.788Z,994.19
2022-10-20T05:02:04.793Z,994.20
2022-10-20T05:03:04.759Z,994.20
2022-10-20T05:04:04.759Z,994.17
2022-10-20T05:05:04.776Z,994.17
2022-10-20T05:06:04.709Z,994.12
2022-10-20T05:07:05.309Z,994.13
2022-10-20T05:08:04.678Z,994.04
2022-10-20T05:09:04.787Z,994.04
2022-10-20T05:10:04.652Z,994.06
2022-10-20T05:11:04.641Z,994.04
2022-10-20T05:12:04.678Z,993.97
2022-10-20T05:13:04.618Z,994.02
2022-10-20T05:14:04.978Z,993.95
2022-10-20T05:15:04.592Z,993.88
2022-10-20T05:16:04.594Z,993.88
2022-10-20T05:17:06.559Z,993.87
2022-10-20T05:18:04.548Z,993.84
2022-10-20T05:19:04.507Z,993.79
2022-10-20T05:20:04.526Z,993.82
2022-10-20T05:21:09.056Z,993.83
2022-10-20T05:22:05.507Z,993.79
2022-10-20T05:23:04.487Z,993.78
2022-10-20T05:24:04.457Z,993.75
2022-10-20T05:26:05.387Z,993.77
2022-10-20T05:27:04.436Z,993.76
2022-10-20T05:28:04.418Z,993.75
2022-10-20T05:29:04.461Z,993.72
2022-10-20T05:30:04.398Z,993.72
2022-10-20T05:31:04.386Z,993.73
2022-10-20T05:32:04.326Z,993.76
2022-10-20T05:33:04.346Z,993.73
2022-10-20T05:34:04.325Z,993.72
2022-10-20T05:35:04.265Z,993.72
2022-10-20T05:36:04.265Z,993.73
2022-10-20T05:37:04.245Z,993.71
2022-10-20T05:38:04.236Z,993.72
2022-10-20T05:39:04.248Z,993.72
2022-10-20T05:40:04.211Z,993.71
2022-10-20T05:41:04.255Z,993.67
2022-10-20T05:42:04.189Z,993.60
2022-10-20T05:43:04.177Z,993.62
2022-10-20T05:44:04.185Z,993.65
2022-10-20T05:45:04.144Z,993.60
2022-10-20T05:46:04.146Z,993.56
2022-10-20T05:47:04.114Z,993.62
2022-10-20T05:48:04.104Z,993.58
2022-10-20T05:49:04.123Z,993.62
2022-10-20T05:50:04.084Z,993.60
2022-10-20T05:51:04.059Z,993.63
2022-10-20T05:52:04.058Z,993.65
2022-10-20T05:53:04.043Z,993.67
2022-10-20T05:54:04.053Z,993.62
2022-10-20T05:55:04.013Z,993.55
2022-10-20T05:56:04.011Z,993.54
2022-10-20T05:57:03.993Z,993.53
2022-10-20T05:58:03.971Z,993.46
2022-10-20T05:59:03.982Z,993.52
2022-10-20T06:00:03.949Z,993.51
2022-10-20T06:01:03.932Z,993.52
2022-10-20T06:02:03.923Z,993.53
2022-10-20T06:03:03.911Z,993.55
2022-10-20T06:04:03.929Z,993.56
2022-10-20T06:05:03.883Z,993.53
2022-10-20T06:06:03.871Z,993.54
2022-10-20T06:07:03.858Z,993.52
2022-10-20T06:08:03.851Z,993.55
2022-10-20T06:09:03.946Z,993.50
2022-10-20T06:10:03.824Z,993.54
2022-10-20T06:11:04.009Z,993.47
2022-10-20T06:12:03.879Z,993.50
2022-10-20T06:13:03.991Z,993.50
2022-10-20T06:14:03.801Z,993.42
2022-10-20T06:15:03.758Z,993.46
2022-10-20T06:16:03.751Z,993.47
2022-10-20T06:17:03.730Z,993.41
2022-10-20T06:18:03.729Z,993.40
2022-10-20T06:19:03.730Z,993.43
2022-10-20T06:20:03.694Z,993.43
2022-10-20T06:21:04.619Z,993.40
2022-10-20T06:22:05.966Z,993.39
2022-10-20T06:23:03.661Z,993.42
2022-10-20T06:24:03.677Z,993.37
2022-10-20T06:25:03.646Z,993.41
2022-10-20T06:26:03.611Z,993.40
2022-10-20T06:27:03.598Z,993.41
2022-10-20T06:28:03.582Z,993.41
2022-10-20T06:29:04.877Z,993.37
2022-10-20T06:30:03.549Z,993.32
2022-10-20T06:31:03.548Z,993.34
2022-10-20T06:32:03.570Z,993.34
2022-10-20T06:33:03.518Z,993.33
2022-10-20T06:34:03.528Z,993.25
2022-10-20T06:35:03.510Z,993.30
2022-10-20T06:36:03.487Z,993.30
2022-10-20T06:37:03.469Z,993.26
2022-10-20T06:38:03.448Z,993.24
2022-10-20T06:39:03.468Z,993.24
2022-10-20T06:40:03.431Z,993.21
2022-10-20T06:41:03.419Z,993.23
2022-10-20T06:42:05.901Z,993.30
2022-10-20T06:43:03.397Z,993.28
2022-10-20T06:44:03.399Z,993.22
2022-10-20T06:45:03.366Z,993.26
2022-10-20T06:46:03.381Z,993.21
2022-10-20T06:47:04.097Z,993.27
2022-10-20T06:48:03.326Z,993.27
2022-10-20T06:49:03.336Z,993.27
2022-10-20T06:50:03.309Z,993.22
2022-10-20T06:51:03.290Z,993.24
2022-10-20T06:52:03.808Z,993.20
2022-10-20T06:53:03.258Z,993.21
2022-10-20T06:54:03.776Z,993.17
2022-10-20T06:55:03.235Z,993.26
2022-10-20T06:56:03.335Z,993.17
2022-10-20T06:57:03.206Z,993.22
2022-10-20T06:58:03.213Z,993.19
2022-10-20T06:59:03.203Z,993.14
2022-10-20T07:00:03.165Z,993.12
2022-10-20T07:01:05.535Z,993.12
2022-10-20T07:02:04.194Z,993.16
2022-10-20T07:03:03.164Z,993.17
2022-10-20T07:04:03.144Z,993.19
2022-10-20T07:05:03.106Z,993.19
2022-10-20T07:06:03.093Z,993.15
2022-10-20T07:07:03.083Z,993.12
2022-10-20T07:08:03.067Z,993.25
2022-10-20T07:09:03.194Z,993.18
2022-10-20T07:10:03.095Z,993.23
2022-10-20T07:11:03.041Z,993.21
2022-10-20T07:12:03.007Z,993.17
2022-10-20T07:13:03.081Z,993.13
2022-10-20T07:14:03.018Z,993.17
2022-10-20T07:15:02.971Z,993.16
2022-10-20T07:16:02.980Z,993.17
2022-10-20T07:17:02.949Z,993.18
2022-10-20T07:18:02.942Z,993.20
2022-10-20T07:19:03.200Z,993.21
2022-10-20T07:20:02.905Z,993.20
2022-10-20T07:21:02.892Z,993.20
2022-10-20T07:22:03.085Z,993.23
2022-10-20T07:23:02.864Z,993.20
2022-10-20T07:24:02.880Z,993.22
2022-10-20T07:25:02.850Z,993.24
2022-10-20T07:26:02.832Z,993.22
2022-10-20T07:27:02.830Z,993.29
2022-10-20T07:28:02.799Z,993.26
2022-10-20T07:29:02.821Z,993.17
2022-10-20T07:30:02.779Z,993.15
2022-10-20T07:31:03.448Z,993.17
2022-10-20T07:32:03.135Z,993.24
2022-10-20T07:33:02.741Z,993.21
2022-10-20T07:35:03.709Z,993.22
2022-10-20T07:36:02.690Z,993.25
2022-10-20T07:37:02.681Z,993.28
2022-10-20T07:38:02.667Z,993.25
2022-10-20T07:39:02.720Z,993.26
2022-10-20T07:40:02.652Z,993.25
2022-10-20T07:41:02.647Z,993.18
2022-10-20T07:42:02.613Z,993.15
2022-10-20T07:43:02.627Z,993.15
2022-10-20T07:44:02.611Z,993.15
2022-10-20T07:45:02.580Z,993.16
2022-10-20T07:46:02.570Z,993.10
2022-10-20T07:47:02.551Z,993.15
2022-10-20T07:48:02.529Z,993.12
2022-10-20T07:50:03.509Z,993.08
2022-10-20T07:51:02.513Z,993.16
2022-10-20T07:52:02.479Z,993.11
2022-10-20T07:53:02.468Z,993.15
2022-10-20T07:54:02.472Z,993.14
2022-10-20T07:55:12.418Z,993.15
2022-10-20T07:56:03.434Z,993.10
2022-10-20T07:57:02.418Z,993.15
2022-10-20T07:58:02.399Z,993.15
2022-10-20T07:59:02.411Z,993.09
2022-10-20T08:00:02.368Z,993.06
2022-10-20T08:01:02.369Z,993.08
2022-10-20T08:02:02.399Z,993.04
2022-10-20T08:03:02.341Z,993.06
2022-10-20T08:04:02.351Z,993.08
2022-10-20T08:05:02.319Z,993.04
2022-10-20T08:06:02.298Z,993.08
2022-10-20T08:07:02.292Z,993.04
2022-10-20T08:08:02.287Z,993.08
2022-10-20T08:09:02.343Z,993.01
2022-10-20T08:10:02.249Z,992.98
2022-10-20T08:11:02.238Z,992.99
2022-10-20T08:12:02.234Z,992.93
2022-10-20T08:13:02.217Z,992.92
2022-10-20T08:14:02.187Z,992.95
2022-10-20T08:15:02.215Z,992.91
2022-10-20T08:16:02.978Z,992.96
2022-10-20T08:17:02.279Z,992.93
2022-10-20T08:18:02.137Z,992.90
2022-10-20T08:19:04.005Z,992.92
2022-10-20T08:20:07.716Z,992.95
2022-10-20T08:21:02.098Z,992.94
2022-10-20T08:22:02.090Z,992.87
2022-10-20T08:23:02.079Z,992.81
2022-10-20T08:24:02.058Z,992.82
2022-10-20T08:25:02.085Z,992.76
2022-10-20T08:26:02.038Z,992.72
2022-10-20T08:27:02.048Z,992.71
2022-10-20T08:28:02.016Z,992.72
2022-10-20T08:29:02.019Z,992.75
2022-10-20T08:30:22.363Z,992.73
2022-10-20T08:31:02.977Z,992.72
2022-10-20T08:32:01.997Z,992.77
2022-10-20T08:33:01.946Z,992.78
2022-10-20T08:34:01.976Z,992.74
2022-10-20T08:35:01.944Z,992.74
2022-10-20T08:36:01.922Z,992.74
2022-10-20T08:37:01.886Z,992.70
2022-10-20T08:38:01.886Z,992.65
2022-10-20T08:39:05.107Z,992.66
2022-10-20T08:40:01.889Z,992.64
2022-10-20T08:41:01.872Z,992.63
2022-10-20T08:42:09.732Z,992.62
2022-10-20T08:43:02.817Z,992.62
2022-10-20T08:44:01.797Z,992.66
2022-10-20T08:45:01.818Z,992.68
2022-10-20T08:46:01.766Z,992.68
2022-10-20T08:47:01.760Z,992.69
2022-10-20T08:48:01.746Z,992.70
2022-10-20T08:49:01.736Z,992.69
2022-10-20T08:50:01.763Z,992.69
2022-10-20T08:51:01.717Z,992.67
2022-10-20T08:52:01.756Z,992.66
2022-10-20T08:53:01.685Z,992.58
2022-10-20T08:54:01.685Z,992.63
2022-10-20T08:55:01.676Z,992.60
2022-10-20T08:56:01.645Z,992.59
2022-10-20T08:57:01.625Z,992.62
2022-10-20T08:58:01.605Z,992.63
2022-10-20T08:59:01.606Z,992.61
2022-10-20T09:00:03.861Z,992.54
2022-10-20T09:01:01.576Z,992.57
2022-10-20T09:02:01.612Z,992.57
2022-10-20T09:03:01.747Z,992.51
2022-10-20T09:04:01.694Z,992.58
2022-10-20T09:05:01.557Z,992.54
2022-10-20T09:06:01.512Z,992.48
2022-10-20T09:07:01.507Z,992.53
2022-10-20T09:08:01.484Z,992.47
2022-10-20T09:09:01.519Z,992.42
2022-10-20T09:10:01.601Z,992.40
2022-10-20T09:11:01.444Z,992.44
2022-10-20T09:12:01.425Z,992.40
2022-10-20T09:13:01.416Z,992.38
2022-10-20T09:14:01.404Z,992.38
2022-10-20T09:15:01.423Z,992.31
2022-10-20T09:16:01.393Z,992.31
2022-10-20T09:17:01.455Z,992.32
2022-10-20T09:18:01.426Z,992.31
2022-10-20T09:19:01.363Z,992.31
2022-10-20T09:20:01.485Z,992.26
2022-10-20T09:21:01.314Z,992.33
2022-10-20T09:22:01.295Z,992.28
2022-10-20T09:23:04.174Z,992.24
2022-10-20T09:24:01.273Z,992.24
2022-10-20T09:25:01.551Z,992.26
2022-10-20T09:26:01.243Z,992.22
2022-10-20T09:27:01.234Z,992.23
2022-10-20T09:28:01.215Z,992.18
2022-10-20T09:29:12.601Z,992.18
2022-10-20T09:30:02.214Z,992.17
2022-10-20T09:31:01.183Z,992.23
2022-10-20T09:32:11.410Z,992.15
2022-10-20T09:33:02.390Z,992.12
2022-10-20T09:34:01.138Z,992.17
2022-10-20T09:35:01.167Z,992.13
2022-10-20T09:36:01.111Z,992.16
2022-10-20T09:37:01.113Z,992.16
2022-10-20T09:38:01.082Z,992.16
2022-10-20T09:39:01.083Z,992.09
2022-10-20T09:40:01.083Z,992.07
2022-10-20T09:41:01.042Z,992.09
2022-10-20T09:43:01.034Z,992.03
2022-10-20T09:44:01.013Z,992.01
2022-10-20T09:45:01.036Z,992.01
2022-10-20T09:46:00.973Z,991.98
2022-10-20T09:47:01.012Z,991.95
2022-10-20T09:48:00.952Z,991.95
2022-10-20T09:49:00.943Z,991.89
2022-10-20T09:50:01.375Z,991.87
2022-10-20T09:51:00.975Z,991.89
2022-10-20T09:52:00.903Z,991.86
2022-10-20T09:53:00.883Z,991.87
2022-10-20T09:54:00.872Z,991.89
2022-10-20T09:55:00.895Z,991.83
2022-10-20T09:56:00.849Z,991.86
2022-10-20T09:57:00.834Z,991.81
2022-10-20T09:58:00.822Z,991.86
2022-10-20T09:59:00.812Z,991.75
2022-10-20T10:00:04.494Z,991.74
2022-10-20T10:01:01.868Z,991.71
2022-10-20T10:02:00.762Z,991.76
2022-10-20T10:03:00.806Z,991.78
2022-10-20T10:04:00.749Z,991.65
2022-10-20T10:05:00.762Z,991.69
2022-10-20T10:06:00.712Z,991.58
2022-10-20T10:07:00.713Z,991.57
2022-10-20T10:08:00.682Z,991.58
2022-10-20T10:09:00.725Z,991.53
2022-10-20T10:10:03.875Z,991.54
2022-10-20T10:11:01.654Z,991.46
2022-10-20T10:12:00.638Z,991.55
2022-10-20T10:13:00.690Z,991.54
2022-10-20T10:14:00.603Z,991.53
2022-10-20T10:15:00.623Z,991.54
2022-10-20T10:16:00.582Z,991.53
2022-10-20T10:17:00.576Z,991.55
2022-10-20T10:18:00.551Z,991.53
2022-10-20T10:19:00.640Z,991.57
2022-10-20T10:20:00.556Z,991.54
2022-10-20T10:21:00.566Z,991.59
2022-10-20T10:22:00.504Z,991.64
2022-10-20T10:23:00.502Z,991.54
2022-10-20T10:24:00.475Z,991.47
2022-10-20T10:25:00.492Z,991.46
2022-10-20T10:26:02.982Z,991.45
2022-10-20T10:27:00.441Z,991.41
2022-10-20T10:28:00.427Z,991.47
2022-10-20T10:29:00.412Z,991.40
2022-10-20T10:30:00.422Z,991.38
2022-10-20T10:31:01.332Z,991.38
2022-10-20T10:32:00.372Z,991.36
2022-10-20T10:33:00.362Z,991.32
2022-10-20T10:34:00.343Z,991.32
2022-10-20T10:35:00.372Z,991.23
2022-10-20T10:36:00.313Z,991.33
2022-10-20T10:37:00.314Z,991.29
2022-10-20T10:38:00.292Z,991.29
2022-10-20T10:39:00.282Z,991.21
2022-10-20T10:40:00.297Z,991.24
2022-10-20T10:41:00.252Z,991.18
2022-10-20T10:42:00.235Z,991.23
2022-10-20T10:43:00.235Z,991.15
2022-10-20T10:44:00.210Z,991.24
2022-10-20T10:45:00.232Z,991.25
2022-10-20T10:46:00.190Z,991.23
2022-10-20T10:47:00.184Z,991.28
2022-10-20T10:48:00.172Z,991.26
2022-10-20T10:49:00.144Z,991.28
2022-10-20T10:50:00.163Z,991.25
2022-10-20T10:51:00.124Z,991.11
2022-10-20T10:52:01.413Z,991.13
2022-10-20T10:53:00.120Z,991.10
2022-10-20T10:54:00.097Z,991.09
2022-10-20T10:55:00.167Z,991.04
2022-10-20T10:56:00.098Z,991.01
2022-10-20T10:57:00.073Z,991.01
2022-10-20T10:58:00.030Z,990.89
2022-10-20T10:59:00.016Z,990.95
2022-10-20T11:00:00.032Z,990.97
2022-10-20T11:01:00.706Z,990.99
2022-10-20T11:02:00.733Z,991.09
2022-10-20T11:02:59.962Z,991.00
2022-10-20T11:03:59.953Z,991.05
2022-10-20T11:05:00.003Z,990.96
2022-10-20T11:05:59.934Z,990.96
2022-10-20T11:06:59.911Z,990.94
2022-10-20T11:07:59.900Z,990.94
2022-10-20T11:09:00.031Z,990.91
2022-10-20T11:09:59.892Z,990.95
2022-10-20T11:10:59.853Z,990.92
2022-10-20T11:11:59.845Z,990.94
2022-10-20T11:12:59.823Z,990.90
2022-10-20T11:13:59.852Z,990.84
2022-10-20T11:14:59.805Z,990.84
2022-10-20T11:15:59.794Z,990.87
2022-10-20T11:16:59.772Z,990.76
2022-10-20T11:18:00.545Z,990.84
2022-10-20T11:19:00.012Z,990.79
2022-10-20T11:20:00.071Z,990.83
2022-10-20T11:20:59.744Z,990.75
2022-10-20T11:21:59.721Z,990.83
2022-10-20T11:22:59.692Z,990.82
2022-10-20T11:23:59.683Z,990.83
2022-10-20T11:24:59.954Z,990.84
2022-10-20T11:25:59.653Z,990.87
2022-10-20T11:26:59.643Z,990.86
2022-10-20T11:27:59.633Z,990.87
2022-10-20T11:28:59.614Z,990.85
2022-10-20T11:29:59.699Z,990.82
2022-10-20T11:30:59.600Z,990.79
2022-10-20T11:31:59.772Z,990.77
2022-10-20T11:32:59.563Z,990.77
2022-10-20T11:33:59.553Z,990.75
2022-10-20T11:34:59.562Z,990.76
2022-10-20T11:35:59.523Z,990.75
2022-10-20T11:36:59.531Z,990.85
2022-10-20T11:37:59.504Z,990.76
2022-10-20T11:38:59.484Z,990.72
2022-10-20T11:40:01.212Z,990.79
2022-10-20T11:40:59.463Z,990.82
2022-10-20T11:41:59.454Z,990.85
2022-10-20T11:42:59.462Z,990.85
2022-10-20T11:43:59.423Z,990.90
2022-10-20T11:44:59.434Z,990.88
2022-10-20T11:45:59.393Z,990.97
2022-10-20T11:46:59.391Z,990.91
2022-10-20T11:47:59.363Z,990.89
2022-10-20T11:49:01.792Z,990.89
2022-10-20T11:49:59.370Z,990.84
2022-10-20T11:50:59.365Z,990.88
2022-10-20T11:51:59.313Z,990.88
2022-10-20T11:52:59.302Z,990.82
2022-10-20T11:53:59.306Z,990.87
2022-10-20T11:54:59.308Z,990.88
2022-10-20T11:55:59.295Z,990.82
2022-10-20T11:56:59.243Z,990.78
2022-10-20T11:58:01.107Z,990.77
2022-10-20T11:58:59.212Z,990.77
2022-10-20T11:59:59.236Z,990.76
2022-10-20T12:00:59.820Z,990.73
2022-10-20T12:01:59.217Z,990.77
2022-10-20T12:02:59.163Z,990.71
2022-10-20T12:03:59.154Z,990.69
2022-10-20T12:04:59.345Z,990.67
2022-10-20T12:05:59.138Z,990.68
2022-10-20T12:06:59.112Z,990.65
2022-10-20T12:08:17.623Z,990.59
2022-10-20T12:09:00.137Z,990.59
2022-10-20T12:09:59.112Z,990.60
2022-10-20T12:10:59.065Z,990.63
2022-10-20T12:11:59.063Z,990.59
2022-10-20T12:12:59.040Z,990.63
2022-10-20T12:13:59.033Z,990.68
2022-10-20T12:14:59.043Z,990.71
2022-10-20T12:15:59.024Z,990.69
2022-10-20T12:16:58.995Z,990.76
2022-10-20T12:17:59.334Z,990.80
2022-10-20T12:18:58.964Z,990.88
2022-10-20T12:19:59.362Z,990.84
2022-10-20T12:20:58.925Z,990.80
2022-10-20T12:21:58.922Z,990.88
2022-10-20T12:22:58.902Z,990.84
2022-10-20T12:23:58.963Z,990.87
2022-10-20T12:24:58.913Z,990.88
2022-10-20T12:25:58.864Z,990.85
2022-10-20T12:26:58.845Z,990.82
2022-10-20T12:28:58.828Z,990.79
2022-10-20T12:29:58.843Z,990.80
2022-10-20T12:30:58.797Z,990.79
2022-10-20T12:31:58.791Z,990.80
2022-10-20T12:32:58.764Z,990.79
2022-10-20T12:33:58.754Z,990.81
2022-10-20T12:34:58.772Z,990.76